MOL Explorer — 3EKT8 — position and weather

sailwx.info

Track history (hours):
 
Tides and Currents Weather Stations Pressure Air Temp Water Temp Dewpoint Dewpoint Depression Visibility Wind Speed Wind Dir Waves Ship Positions

MOL Explorer

Last reported at 2014-Nov-23 10:17 UTC. Time now 2014-Nov-26 12:51 UTC.
Position N 35°10' E 139°45'.

Length 293 m; draft 11.6 m.

Type: Ship (hazmat cat A). MMSI: 372827000.

Date/timePositionNaut miles runAvg speedWind from/ knotsBaromVisibWave heightAir tempDewpointWater temp
2014-Nov-23 10:17N 35°10' E 139°45'811.5
2014-Nov-23 09:33N 35°19' E 139°43'1313.4
2014-Nov-23 08:33N 35°31' E 139°51'7 6.5
2014-Nov-23 07:29N 35°36' E 139°46'0 0.0
2014-Nov-23 06:14N 35°36' E 139°46'0 0.0
2014-Nov-22 23:23N 35°36' E 139°46'0 0.0
2014-Nov-22 22:33N 35°36' E 139°46'7 7.5
2014-Nov-22 21:33N 35°31' E 139°52'1313.1
2014-Nov-22 20:33N 35°19' E 139°44'1111.1
2014-Nov-22 19:33N 35°08' E 139°46'  
2014-Nov-20 09:23N 33°54' E 134°56'1518.0
2014-Nov-20 08:34N 34°09' E 134°57'1514.6
2014-Nov-20 07:33N 34°23' E 135°01'1817.9
2014-Nov-20 06:33N 34°36' E 135°16'3 2.5
2014-Nov-20 05:17N 34°39' E 135°15'0 0.0
2014-Nov-20 04:29N 34°39' E 135°15'0 0.0
2014-Nov-20 03:29N 34°39' E 135°15'0 0.0
2014-Nov-20 02:29N 34°39' E 135°15'0 0.0
2014-Nov-20 01:29N 34°39' E 135°15'0 0.0
2014-Nov-20 00:29N 34°39' E 135°15'0 0.0
2014-Nov-19 23:29N 34°39' E 135°15'0 0.0
2014-Nov-19 22:23N 34°39' E 135°15'0 0.0
2014-Nov-19 21:32N 34°39' E 135°15'0 0.0
2014-Nov-19 20:29N 34°39' E 135°15'0 0.0
2014-Nov-19 19:23N 34°39' E 135°15'0 0.0
2014-Nov-19 17:23N 34°39' E 135°15'0 0.0
2014-Nov-19 16:17N 34°39' E 135°15'0 0.0
2014-Nov-19 15:29N 34°39' E 135°15'0 0.0
2014-Nov-19 14:17N 34°39' E 135°15'0 0.0
2014-Nov-19 13:23N 34°39' E 135°15'0 0.0
2014-Nov-19 12:23N 34°39' E 135°15'0 0.0
2014-Nov-19 11:29N 34°39' E 135°15'0 0.0
2014-Nov-19 10:23N 34°39' E 135°15'0 0.0
2014-Nov-19 09:29N 34°39' E 135°15'0 0.0
2014-Nov-19 08:29N 34°39' E 135°15'0 0.0
2014-Nov-19 07:17N 34°39' E 135°15'0 0.0
2014-Nov-19 06:29N 34°39' E 135°15'0 0.0
2014-Nov-19 05:29N 34°39' E 135°15'0 0.0
2014-Nov-19 04:23N 34°39' E 135°15'0 0.0
2014-Nov-19 03:23N 34°39' E 135°15'0 0.0
2014-Nov-19 02:29N 34°39' E 135°15'0 0.0
2014-Nov-19 01:23N 34°39' E 135°15'0 0.0
2014-Nov-19 00:29N 34°39' E 135°15'0 0.0
2014-Nov-18 23:32N 34°39' E 135°15'0 0.0
2014-Nov-18 22:23N 34°39' E 135°15'0 0.0
2014-Nov-18 21:29N 34°39' E 135°15'0 0.0
2014-Nov-18 20:29N 34°39' E 135°15'0 0.0
2014-Nov-18 19:23N 34°39' E 135°15'0 0.0
2014-Nov-18 18:29N 34°39' E 135°15'0 0.0
2014-Nov-18 17:29N 34°39' E 135°15'0 0.0
2014-Nov-18 16:29N 34°39' E 135°15'0 0.0
2014-Nov-18 15:29N 34°39' E 135°15'0 0.0
2014-Nov-18 14:29N 34°39' E 135°15'0 0.0
2014-Nov-18 13:29N 34°39' E 135°15'0 0.0
2014-Nov-18 12:29N 34°39' E 135°15'0 0.0
2014-Nov-18 11:29N 34°39' E 135°15'6 6.2
2014-Nov-18 10:33N 34°33' E 135°15'1717.5
2014-Nov-18 09:34N 34°20' E 135°02'1514.7
2014-Nov-18 08:33N 34°06' E 134°59'24416.2
2014-Nov-17 17:30N 35°11' E 139°45'1010.9
2014-Nov-17 16:34N 35°21' E 139°42'1313.4
2014-Nov-17 15:33N 35°33' E 139°51'5 5.1
2014-Nov-17 14:33N 35°36' E 139°46'0 0.0
2014-Nov-17 13:03N 35°36' E 139°46'0 0.0
2014-Nov-17 12:03N 35°36' E 139°46'0 0.0
2014-Nov-17 11:30N 35°36' E 139°46'0 0.0
2014-Nov-17 07:33N 35°36' E 139°46'0 0.0
2014-Nov-17 06:21N 35°36' E 139°46'0 0.0
2014-Nov-17 05:33N 35°36' E 139°46'0 0.0
2014-Nov-17 04:33N 35°36' E 139°46'2 2.0
2014-Nov-17 03:33N 35°35' E 139°48'9 8.6
2014-Nov-17 02:33N 35°26' E 139°48'10 9.9
2014-Nov-17 01:33N 35°17' E 139°46'1010.1
2014-Nov-17 00:33N 35°07' E 139°46'9 8.1
2014-Nov-16 23:27N 34°59' E 139°40'  
Track history (hours):
 
Tides and Currents Weather Stations Pressure Air Temp Water Temp Dewpoint Dewpoint Depression Visibility Wind Speed Wind Dir Waves Ship Positions

MOL Explorer

Last reported at 2014-Nov-23 10:17 UTC. Time now 2014-Nov-26 12:51 UTC.
Position N 35°10' E 139°45'.

Length 293 m; draft 11.6 m.

Type: Ship (hazmat cat A). MMSI: 372827000.

Date/timePositionNaut miles runAvg speedWind from/ knotsBaromVisibWave heightAir tempDewpointWater temp
2014-Nov-23 10:17N 35°10' E 139°45'811.5
2014-Nov-23 09:33N 35°19' E 139°43'1313.4
2014-Nov-23 08:33N 35°31' E 139°51'7 6.5
2014-Nov-23 07:29N 35°36' E 139°46'0 0.0
2014-Nov-23 06:14N 35°36' E 139°46'0 0.0
2014-Nov-22 23:23N 35°36' E 139°46'0 0.0
2014-Nov-22 22:33N 35°36' E 139°46'7 7.5
2014-Nov-22 21:33N 35°31' E 139°52'1313.1
2014-Nov-22 20:33N 35°19' E 139°44'1111.1
2014-Nov-22 19:33N 35°08' E 139°46'  
2014-Nov-20 09:23N 33°54' E 134°56'1518.0
2014-Nov-20 08:34N 34°09' E 134°57'1514.6
2014-Nov-20 07:33N 34°23' E 135°01'1817.9
2014-Nov-20 06:33N 34°36' E 135°16'3 2.5
2014-Nov-20 05:17N 34°39' E 135°15'0 0.0
2014-Nov-20 04:29N 34°39' E 135°15'0 0.0
2014-Nov-20 03:29N 34°39' E 135°15'0 0.0
2014-Nov-20 02:29N 34°39' E 135°15'0 0.0
2014-Nov-20 01:29N 34°39' E 135°15'0 0.0
2014-Nov-20 00:29N 34°39' E 135°15'0 0.0
2014-Nov-19 23:29N 34°39' E 135°15'0 0.0
2014-Nov-19 22:23N 34°39' E 135°15'0 0.0
2014-Nov-19 21:32N 34°39' E 135°15'0 0.0
2014-Nov-19 20:29N 34°39' E 135°15'0 0.0
2014-Nov-19 19:23N 34°39' E 135°15'0 0.0
2014-Nov-19 17:23N 34°39' E 135°15'0 0.0
2014-Nov-19 16:17N 34°39' E 135°15'0 0.0
2014-Nov-19 15:29N 34°39' E 135°15'0 0.0
2014-Nov-19 14:17N 34°39' E 135°15'0 0.0
2014-Nov-19 13:23N 34°39' E 135°15'0 0.0
2014-Nov-19 12:23N 34°39' E 135°15'0 0.0
2014-Nov-19 11:29N 34°39' E 135°15'0 0.0
2014-Nov-19 10:23N 34°39' E 135°15'0 0.0
2014-Nov-19 09:29N 34°39' E 135°15'0 0.0
2014-Nov-19 08:29N 34°39' E 135°15'0 0.0
2014-Nov-19 07:17N 34°39' E 135°15'0 0.0
2014-Nov-19 06:29N 34°39' E 135°15'0 0.0
2014-Nov-19 05:29N 34°39' E 135°15'0 0.0
2014-Nov-19 04:23N 34°39' E 135°15'0 0.0
2014-Nov-19 03:23N 34°39' E 135°15'0 0.0
2014-Nov-19 02:29N 34°39' E 135°15'0 0.0
2014-Nov-19 01:23N 34°39' E 135°15'0 0.0
2014-Nov-19 00:29N 34°39' E 135°15'0 0.0
2014-Nov-18 23:32N 34°39' E 135°15'0 0.0
2014-Nov-18 22:23N 34°39' E 135°15'0 0.0
2014-Nov-18 21:29N 34°39' E 135°15'0 0.0
2014-Nov-18 20:29N 34°39' E 135°15'0 0.0
2014-Nov-18 19:23N 34°39' E 135°15'0 0.0
2014-Nov-18 18:29N 34°39' E 135°15'0 0.0
2014-Nov-18 17:29N 34°39' E 135°15'0 0.0
2014-Nov-18 16:29N 34°39' E 135°15'0 0.0
2014-Nov-18 15:29N 34°39' E 135°15'0 0.0
2014-Nov-18 14:29N 34°39' E 135°15'0 0.0
2014-Nov-18 13:29N 34°39' E 135°15'0 0.0
2014-Nov-18 12:29N 34°39' E 135°15'0 0.0
2014-Nov-18 11:29N 34°39' E 135°15'6 6.2
2014-Nov-18 10:33N 34°33' E 135°15'1717.5
2014-Nov-18 09:34N 34°20' E 135°02'1514.7
2014-Nov-18 08:33N 34°06' E 134°59'24416.2
2014-Nov-17 17:30N 35°11' E 139°45'1010.9
2014-Nov-17 16:34N 35°21' E 139°42'1313.4
2014-Nov-17 15:33N 35°33' E 139°51'5 5.1
2014-Nov-17 14:33N 35°36' E 139°46'0 0.0
2014-Nov-17 13:03N 35°36' E 139°46'0 0.0
2014-Nov-17 12:03N 35°36' E 139°46'0 0.0
2014-Nov-17 11:30N 35°36' E 139°46'0 0.0
2014-Nov-17 07:33N 35°36' E 139°46'0 0.0
2014-Nov-17 06:21N 35°36' E 139°46'0 0.0
2014-Nov-17 05:33N 35°36' E 139°46'0 0.0
2014-Nov-17 04:33N 35°36' E 139°46'2 2.0
2014-Nov-17 03:33N 35°35' E 139°48'9 8.6
2014-Nov-17 02:33N 35°26' E 139°48'10 9.9
2014-Nov-17 01:33N 35°17' E 139°46'1010.1
2014-Nov-17 00:33N 35°07' E 139°46'9 8.1
2014-Nov-16 23:27N 34°59' E 139°40'  

Dump ship's entire track history